createdAt,value
2023-10-12T00:02:17.363Z,15.52
2023-10-12T00:06:01.535Z,15.50
2023-10-12T00:09:48.830Z,15.49
2023-10-12T00:13:32.446Z,15.50
2023-10-12T00:17:17.033Z,15.53
2023-10-12T00:21:07.150Z,15.53
2023-10-12T00:24:51.098Z,15.53
2023-10-12T00:28:39.747Z,15.53
2023-10-12T00:32:22.521Z,15.61
2023-10-12T00:36:20.827Z,15.70
2023-10-12T00:40:23.491Z,15.82
2023-10-12T00:44:12.931Z,15.91
2023-10-12T00:47:57.816Z,16.01
2023-10-12T00:51:49.846Z,16.04
2023-10-12T00:55:37.633Z,16.11
2023-10-12T00:59:22.529Z,16.13
2023-10-12T01:03:29.058Z,16.14
2023-10-12T01:07:20.895Z,16.13
2023-10-12T01:11:07.157Z,16.18
2023-10-12T01:14:49.905Z,16.17
2023-10-12T01:18:32.715Z,16.31
2023-10-12T01:22:17.198Z,16.41
2023-10-12T01:26:11.071Z,16.61
2023-10-12T01:29:54.131Z,16.65
2023-10-12T01:33:39.278Z,16.72
2023-10-12T01:37:25.113Z,16.75
2023-10-12T01:41:11.182Z,16.76
2023-10-12T01:44:54.468Z,16.73
2023-10-12T01:48:38.353Z,16.79
2023-10-12T01:52:21.082Z,16.76
2023-10-12T01:56:10.375Z,16.84
2023-10-12T01:59:55.616Z,16.80
2023-10-12T02:03:43.988Z,16.71
2023-10-12T02:07:27.460Z,16.68
2023-10-12T02:11:12.963Z,16.60
2023-10-12T02:14:55.756Z,16.52
2023-10-12T02:18:38.841Z,16.44
2023-10-12T02:22:22.201Z,16.41
2023-10-12T02:26:11.853Z,16.38
2023-10-12T02:29:57.823Z,16.29
2023-10-12T02:33:40.772Z,16.18
2023-10-12T02:37:25.522Z,16.18
2023-10-12T02:41:13.838Z,16.14
2023-10-12T02:45:18.893Z,16.16
2023-10-12T02:49:07.405Z,16.08
2023-10-12T02:52:53.447Z,16.03
2023-10-12T02:56:37.242Z,15.99
2023-10-12T03:00:24.440Z,15.98
2023-10-12T03:04:12.094Z,15.91
2023-10-12T03:07:55.183Z,15.84
2023-10-12T03:11:37.959Z,15.89
2023-10-12T03:15:22.567Z,15.89
2023-10-12T03:19:18.955Z,15.93
2023-10-12T03:23:13.630Z,15.96
2023-10-12T03:27:12.230Z,16.05
2023-10-12T03:30:58.689Z,16.07
2023-10-12T03:34:54.869Z,16.07
2023-10-12T03:38:37.954Z,16.17
2023-10-12T03:42:34.654Z,16.31
2023-10-12T03:46:30.916Z,16.34
2023-10-12T03:50:18.334Z,16.49
2023-10-12T03:54:12.386Z,16.53
2023-10-12T03:58:07.224Z,16.60
2023-10-12T04:01:55.116Z,16.64
2023-10-12T04:05:46.942Z,16.70
2023-10-12T04:09:43.512Z,16.70
2023-10-12T04:13:40.262Z,16.66
2023-10-12T04:17:38.312Z,16.65
2023-10-12T04:21:34.640Z,16.59
2023-10-12T04:25:33.705Z,16.55
2023-10-12T04:29:23.057Z,16.51
2023-10-12T04:33:13.483Z,16.48
2023-10-12T04:37:09.122Z,16.43
2023-10-12T04:41:06.115Z,16.40
2023-10-12T04:45:02.709Z,16.40
2023-10-12T04:48:47.383Z,16.40
2023-10-12T04:52:37.737Z,16.29
2023-10-12T04:56:20.603Z,16.26
2023-10-12T05:00:12.738Z,16.24
2023-10-12T05:04:09.918Z,16.22
2023-10-12T05:07:57.821Z,16.18
2023-10-12T05:11:40.760Z,16.17
2023-10-12T05:15:23.833Z,16.16
2023-10-12T05:19:08.837Z,16.10
2023-10-12T05:22:51.773Z,16.11
2023-10-12T05:26:36.306Z,16.06
2023-10-12T05:30:21.596Z,16.07
2023-10-12T05:34:33.657Z,16.06
2023-10-12T05:38:18.738Z,16.10
2023-10-12T05:42:06.842Z,16.08
2023-10-12T05:45:49.597Z,16.13
2023-10-12T05:49:34.632Z,16.10
2023-10-12T05:53:18.071Z,16.14
2023-10-12T05:57:05.241Z,16.17
2023-10-12T06:00:48.286Z,16.19
2023-10-12T06:04:31.168Z,16.18
2023-10-12T06:08:18.195Z,16.24
2023-10-12T06:12:00.981Z,16.29
2023-10-12T06:15:50.802Z,16.34
2023-10-12T06:19:36.500Z,16.35
2023-10-12T06:23:21.906Z,16.32
2023-10-12T06:27:23.972Z,16.34
2023-10-12T06:31:09.093Z,16.35
2023-10-12T06:35:06.059Z,16.38
2023-10-12T06:39:10.572Z,16.38
2023-10-12T06:43:15.034Z,16.41
2023-10-12T06:46:59.764Z,16.43
2023-10-12T06:50:42.591Z,16.46
2023-10-12T06:54:34.067Z,16.50
2023-10-12T06:58:19.017Z,16.62
2023-10-12T07:02:11.907Z,16.58
2023-10-12T07:05:54.915Z,16.65
2023-10-12T07:09:43.693Z,16.70
2023-10-12T07:13:27.944Z,16.78
2023-10-12T07:17:11.180Z,16.87
2023-10-12T07:20:53.920Z,16.95
2023-10-12T07:24:39.860Z,17.06
2023-10-12T07:28:33.761Z,17.24
2023-10-12T07:32:33.079Z,17.42
2023-10-12T07:36:18.833Z,17.62
2023-10-12T07:40:18.335Z,17.82
2023-10-12T07:44:02.485Z,18.11
2023-10-12T07:47:49.792Z,18.31
2023-10-12T07:51:52.927Z,18.59
2023-10-12T07:55:42.939Z,18.87
2023-10-12T07:59:30.495Z,19.15
2023-10-12T08:03:26.706Z,19.54
2023-10-12T08:07:10.068Z,19.82
2023-10-12T08:11:00.358Z,19.93
2023-10-12T08:14:45.579Z,20.04
2023-10-12T08:22:54.986Z,20.45
2023-10-12T08:26:49.897Z,20.51
2023-10-12T08:35:05.464Z,20.87
2023-10-12T08:38:55.013Z,20.90
2023-10-12T08:42:56.775Z,21.12
2023-10-12T08:46:58.001Z,21.25
2023-10-12T08:50:59.907Z,21.29
2023-10-12T08:54:44.163Z,21.33
2023-10-12T08:58:40.025Z,21.55
2023-10-12T09:02:23.563Z,21.59
2023-10-12T09:06:21.110Z,21.65
2023-10-12T09:10:04.601Z,21.96
2023-10-12T09:13:55.238Z,22.14
2023-10-12T09:17:42.404Z,22.20
2023-10-12T09:21:30.214Z,22.25
2023-10-12T09:25:33.087Z,22.27
2023-10-12T09:29:25.453Z,22.31
2023-10-12T09:33:28.266Z,22.35
2023-10-12T09:37:18.940Z,22.41
2023-10-12T09:41:01.874Z,22.56
2023-10-12T09:44:46.666Z,22.78
2023-10-12T09:48:39.151Z,22.92
2023-10-12T09:52:25.377Z,23.05
2023-10-12T09:56:18.196Z,23.10
2023-10-12T10:00:02.252Z,23.16
2023-10-12T10:03:49.842Z,23.23
2023-10-12T10:07:37.368Z,23.38
2023-10-12T10:11:29.101Z,23.59
2023-10-12T10:15:21.410Z,23.64
2023-10-12T10:19:15.267Z,23.78
2023-10-12T10:23:04.960Z,23.89
2023-10-12T10:26:49.686Z,24.07
2023-10-12T10:30:42.556Z,24.12
2023-10-12T10:34:26.900Z,24.12
2023-10-12T10:38:12.419Z,24.11
2023-10-12T10:41:57.726Z,24.15
2023-10-12T10:45:43.093Z,24.22
2023-10-12T10:49:34.368Z,24.36
2023-10-12T10:53:21.124Z,24.41
2023-10-12T10:57:15.819Z,24.36
2023-10-12T11:00:58.815Z,24.38
2023-10-12T11:04:45.512Z,24.45
2023-10-12T11:08:33.085Z,24.47
2023-10-12T11:12:16.612Z,24.47
2023-10-12T11:15:59.418Z,24.51
2023-10-12T11:19:42.732Z,24.42
2023-10-12T11:23:25.624Z,24.15
2023-10-12T11:27:12.895Z,24.00
2023-10-12T11:31:03.954Z,24.08
2023-10-12T11:34:53.480Z,24.18
2023-10-12T11:38:36.323Z,24.36
2023-10-12T11:42:21.612Z,24.55
2023-10-12T11:46:05.362Z,24.86
2023-10-12T11:49:57.034Z,25.11
2023-10-12T11:53:40.868Z,25.06
2023-10-12T11:57:25.113Z,25.04
2023-10-12T12:01:10.395Z,25.11
2023-10-12T12:05:07.814Z,25.08
2023-10-12T12:08:52.997Z,25.14
2023-10-12T12:12:39.682Z,25.30
2023-10-12T12:16:22.668Z,25.34
2023-10-12T12:20:10.093Z,25.41
2023-10-12T12:23:52.926Z,25.38
2023-10-12T12:27:40.195Z,25.43
2023-10-12T12:31:25.334Z,25.71
2023-10-12T12:35:09.137Z,26.03
2023-10-12T12:38:58.884Z,26.22
2023-10-12T12:42:43.069Z,25.82
2023-10-12T12:46:25.959Z,25.46
2023-10-12T12:50:09.880Z,25.33
2023-10-12T12:53:54.225Z,25.31
2023-10-12T12:57:39.735Z,25.50
2023-10-12T13:01:26.236Z,25.54
2023-10-12T13:05:10.367Z,25.30
2023-10-12T13:08:53.362Z,25.11
2023-10-12T13:12:36.286Z,25.05
2023-10-12T13:16:19.368Z,25.14
2023-10-12T13:20:03.939Z,25.03
2023-10-12T13:23:47.832Z,25.09
2023-10-12T13:27:33.495Z,25.25
2023-10-12T13:31:17.633Z,25.19
2023-10-12T13:35:01.805Z,24.94
2023-10-12T13:38:46.541Z,24.89
2023-10-12T13:42:29.638Z,24.88
2023-10-12T13:46:13.823Z,24.84
2023-10-12T13:49:57.585Z,24.86
2023-10-12T13:53:40.358Z,24.70
2023-10-12T13:57:24.496Z,24.56
2023-10-12T14:01:15.681Z,24.60
2023-10-12T14:04:59.661Z,24.46
2023-10-12T14:08:42.781Z,24.35
2023-10-12T14:12:28.842Z,24.31
2023-10-12T14:16:13.030Z,24.23
2023-10-12T14:19:59.724Z,24.22
2023-10-12T14:23:46.614Z,24.19
2023-10-12T14:27:30.801Z,24.14
2023-10-12T14:31:15.237Z,24.03
2023-10-12T14:34:58.281Z,23.87
2023-10-12T14:38:45.966Z,23.72
2023-10-12T14:42:30.318Z,23.62
2023-10-12T14:46:14.055Z,23.51
2023-10-12T14:49:57.805Z,23.42
2023-10-12T14:53:40.869Z,23.26
2023-10-12T14:57:26.007Z,23.11
2023-10-12T15:01:15.060Z,22.95
2023-10-12T15:04:59.207Z,22.87
2023-10-12T15:08:43.875Z,22.84
2023-10-12T15:12:28.332Z,22.78
2023-10-12T15:16:13.135Z,22.65
2023-10-12T15:19:55.982Z,22.58
2023-10-12T15:23:38.829Z,22.58
2023-10-12T15:27:24.466Z,22.63
2023-10-12T15:31:10.049Z,22.62
2023-10-12T15:34:57.200Z,22.55
2023-10-12T15:38:41.896Z,22.48
2023-10-12T15:42:24.679Z,22.48
2023-10-12T15:46:11.043Z,22.42
2023-10-12T15:49:56.948Z,22.43
2023-10-12T15:53:39.813Z,22.32
2023-10-12T15:57:22.643Z,22.28
2023-10-12T16:01:06.818Z,22.32
2023-10-12T16:04:50.351Z,22.23
2023-10-12T16:08:34.514Z,22.21
2023-10-12T16:12:19.112Z,22.19
2023-10-12T16:16:11.524Z,22.05
2023-10-12T16:19:55.352Z,21.98
2023-10-12T16:23:39.496Z,21.94
2023-10-12T16:27:25.772Z,21.93
2023-10-12T16:31:10.216Z,21.86
2023-10-12T16:34:53.302Z,21.77
2023-10-12T16:38:36.243Z,21.70
2023-10-12T16:42:22.098Z,21.65
2023-10-12T16:46:05.688Z,21.64
2023-10-12T16:49:48.758Z,21.69
2023-10-12T16:53:31.813Z,21.66
2023-10-12T16:57:14.802Z,21.65
2023-10-12T17:00:59.585Z,21.60
2023-10-12T17:04:47.830Z,21.49
2023-10-12T17:08:31.299Z,21.40
2023-10-12T17:12:14.120Z,21.43
2023-10-12T17:15:58.969Z,21.44
2023-10-12T17:19:41.888Z,21.43
2023-10-12T17:23:28.936Z,21.35
2023-10-12T17:27:12.330Z,21.30
2023-10-12T17:30:55.553Z,21.26
2023-10-12T17:34:39.742Z,21.23
2023-10-12T17:38:22.500Z,21.16
2023-10-12T17:42:05.757Z,21.18
2023-10-12T17:45:55.378Z,21.07
2023-10-12T17:49:39.751Z,21.12
2023-10-12T17:53:23.009Z,21.09
2023-10-12T17:57:05.844Z,21.02
2023-10-12T18:00:48.666Z,21.02
2023-10-12T18:04:31.625Z,21.06
2023-10-12T18:08:15.803Z,21.07
2023-10-12T18:11:58.624Z,21.04
2023-10-12T18:15:42.596Z,21.11
2023-10-12T18:19:25.576Z,21.28
2023-10-12T18:23:08.398Z,21.24
2023-10-12T18:26:52.530Z,21.17
2023-10-12T18:30:37.331Z,21.15
2023-10-12T18:34:20.224Z,21.17
2023-10-12T18:38:04.601Z,21.14
2023-10-12T18:41:47.420Z,21.10
2023-10-12T18:45:31.545Z,21.15
2023-10-12T18:49:17.202Z,21.12
2023-10-12T18:53:00.044Z,21.15
2023-10-12T18:56:42.877Z,21.16
2023-10-12T19:00:36.581Z,21.11
2023-10-12T19:04:20.571Z,21.08
2023-10-12T19:08:03.409Z,21.00
2023-10-12T19:11:46.407Z,21.02
2023-10-12T19:15:32.230Z,21.01
2023-10-12T19:19:16.483Z,21.07
2023-10-12T19:22:59.408Z,21.04
2023-10-12T19:26:42.286Z,21.01
2023-10-12T19:30:25.232Z,20.99
2023-10-12T19:34:08.074Z,20.97
2023-10-12T19:37:52.338Z,20.92
2023-10-12T19:41:35.119Z,20.83
2023-10-12T19:45:18.931Z,20.79
2023-10-12T19:49:01.870Z,20.79
2023-10-12T19:52:44.740Z,20.73
2023-10-12T19:56:28.846Z,20.71
2023-10-12T20:00:26.182Z,20.72
2023-10-12T20:04:09.810Z,20.66
2023-10-12T20:07:53.073Z,20.61
2023-10-12T20:11:37.171Z,20.57
2023-10-12T20:15:20.335Z,20.54
2023-10-12T20:19:03.165Z,20.47
2023-10-12T20:22:47.148Z,20.39
2023-10-12T20:26:30.060Z,20.33
2023-10-12T20:30:14.760Z,20.30
2023-10-12T20:33:57.559Z,20.21
2023-10-12T20:37:40.518Z,20.11
2023-10-12T20:41:24.394Z,20.04
2023-10-12T20:45:13.224Z,19.96
2023-10-12T20:49:01.829Z,20.14
2023-10-12T20:52:44.802Z,20.34
2023-10-12T20:56:28.608Z,20.29
2023-10-12T21:00:14.759Z,20.21
2023-10-12T21:04:02.376Z,20.11
2023-10-12T21:07:45.423Z,20.13
2023-10-12T21:11:32.466Z,20.10
2023-10-12T21:15:20.632Z,20.01
2023-10-12T21:19:13.163Z,19.91
2023-10-12T21:22:56.799Z,19.79
2023-10-12T21:26:39.635Z,19.69
2023-10-12T21:30:26.586Z,19.64
2023-10-12T21:34:12.011Z,19.58
2023-10-12T21:37:54.972Z,19.50
2023-10-12T21:41:37.740Z,19.41
2023-10-12T21:45:24.345Z,19.35
2023-10-12T21:49:07.938Z,19.24
2023-10-12T21:52:52.655Z,19.20
2023-10-12T21:56:38.472Z,19.13
2023-10-12T22:00:33.553Z,19.03
2023-10-12T22:04:19.661Z,18.94
2023-10-12T22:08:04.480Z,18.91
2023-10-12T22:11:48.102Z,18.88
2023-10-12T22:15:34.063Z,18.87
2023-10-12T22:19:20.408Z,18.86
2023-10-12T22:23:05.594Z,18.84
2023-10-12T22:26:48.366Z,18.86
2023-10-12T22:30:31.371Z,18.82
2023-10-12T22:34:16.989Z,18.75
2023-10-12T22:38:00.006Z,18.73
2023-10-12T22:41:44.330Z,18.72
2023-10-12T22:45:27.190Z,18.67
2023-10-12T22:49:10.933Z,18.68
2023-10-12T22:52:56.712Z,18.72
2023-10-12T22:56:39.581Z,18.79
2023-10-12T23:00:27.194Z,18.85
2023-10-12T23:04:10.031Z,18.89
2023-10-12T23:07:55.938Z,18.93
2023-10-12T23:11:40.788Z,18.92
2023-10-12T23:15:24.876Z,18.94
2023-10-12T23:19:12.325Z,18.91
2023-10-12T23:22:55.152Z,18.90
2023-10-12T23:26:38.419Z,18.85
2023-10-12T23:30:23.733Z,18.84
2023-10-12T23:34:11.828Z,18.84
2023-10-12T23:38:08.686Z,18.86
2023-10-12T23:41:52.234Z,18.87
2023-10-12T23:45:37.255Z,18.91
2023-10-12T23:49:44.072Z,18.88
2023-10-12T23:53:27.853Z,18.84
2023-10-12T23:57:11.572Z,18.81
